.
WxDataArchive / Data Records for 2009-08-27
2009-08-26 August 2009 2009-08-28

Data Records for Thursday, 27 August 2009

Time	Temp	Chill	HIndex	Humid	Dewpt	 Wind 	HiWind	WindDir	Rain 	Barom 
-----	----	-----	------	-----	-----	------	------	-------	-----	----- 
00:00	64.2	64.2	64.2	92	61.8	1	3	112	0.00	30.098 
00:05	64.2	64.2	64.2	91	61.5	0	2	112	0.00	30.098 
00:10	64.2	64.2	64.2	92	61.8	0	2	112	0.00	30.098 
00:15	64.2	64.2	64.2	92	61.8	1	4	112	0.00	30.104 
00:20	64.2	64.2	64.2	92	61.8	1	5	112	0.00	30.104 
00:25	64.2	64.2	64.2	93	62.1	1	3	90	0.00	30.104 
00:30	64.2	64.2	64.2	93	62.1	1	5	90	0.00	30.108 
00:35	64.2	64.2	64.2	93	62.1	1	2	90	0.00	30.108 
00:40	64.2	64.2	64.2	93	62.1	1	5	112	0.00	30.108 
00:45	64.2	64.2	64.2	93	62.1	0	2	112	0.00	30.109 
00:50	64.2	64.2	64.2	93	62.1	1	5	112	0.00	30.109 
00:55	64.2	64.2	64.2	93	62.1	1	4	90	0.00	30.109 
01:00	64.2	64.2	64.2	92	61.8	2	5	90	0.00	30.101 
01:05	64.2	64.2	64.2	93	62.1	1	3	112	0.00	30.101 
01:10	64.2	64.2	64.2	93	62.1	0	2	112	0.00	30.101 
01:15	64.2	64.2	64.2	93	62.1	0	2	112	0.00	30.105 
01:20	64.3	64.3	64.3	93	62.2	1	3	112	0.00	30.105 
01:25	64.3	64.3	64.3	93	62.2	1	3	90	0.00	30.105 
01:30	64.3	64.3	64.3	93	62.2	2	4	90	0.00	30.107 
01:35	64.3	64.3	64.3	93	62.2	1	4	90	0.00	30.107 
01:40	64.3	64.3	64.3	93	62.2	1	3	90	0.00	30.107 
01:45	64.3	64.3	64.3	93	62.2	1	3	90	0.00	30.100 
01:50	64.3	64.3	64.3	93	62.2	0	2	90	0.00	30.100 
01:55	64.3	64.3	64.3	93	62.2	0	1	90	0.00	30.100 
02:00	64.3	64.3	64.3	93	62.2	1	2	90	0.00	30.095 
02:05	64.3	64.3	64.3	93	62.2	1	3	90	0.00	30.095 
02:10	64.3	64.3	64.3	93	62.2	1	2	90	0.00	30.095 
02:15	64.3	64.3	64.3	93	62.2	0	2	90	0.00	30.096 
02:20	64.2	64.2	64.2	93	62.1	1	3	90	0.00	30.096 
02:25	64.2	64.2	64.2	92	61.8	1	4	112	0.00	30.096 
02:30	64.3	64.3	64.3	92	61.9	1	5	112	0.00	30.094 
02:35	64.3	64.3	64.3	92	61.9	1	3	112	0.00	30.094 
02:40	64.3	64.3	64.3	92	61.9	1	3	112	0.00	30.094 
02:45	64.5	64.5	64.5	92	62.1	1	2	112	0.00	30.089 
02:50	64.5	64.5	64.5	92	62.1	1	4	90	0.00	30.089 
02:55	64.5	64.5	64.5	92	62.1	1	3	90	0.00	30.089 
03:00	64.5	64.5	64.5	92	62.1	0	2	90	0.00	30.085 
03:05	64.5	64.5	64.5	92	62.1	0	2	90	0.00	30.085 
03:10	64.5	64.5	64.5	92	62.1	0	3	90	0.00	30.085 
03:15	64.5	64.5	64.5	92	62.1	1	2	90	0.00	30.089 
03:20	64.7	64.7	64.7	92	62.3	0	1	90	0.00	30.089 
03:25	64.7	64.7	64.7	92	62.3	0	2	90	0.00	30.089 
03:30	64.7	64.7	64.7	91	62.0	0	1	90	0.00	30.086 
03:35	64.7	64.7	64.7	91	62.0	1	4	90	0.00	30.086 
03:40	64.7	64.7	64.7	91	62.0	1	3	90	0.00	30.086 
03:45	64.8	64.8	64.8	91	62.1	1	6	68	0.00	30.082 
03:50	64.8	64.8	64.8	91	62.1	1	3	68	0.00	30.082 
03:55	64.8	64.8	64.8	91	62.1	0	1	90	0.00	30.082 
04:00	64.8	64.8	64.8	90	61.8	1	3	90	0.00	30.089 
04:05	64.8	64.8	64.8	90	61.8	1	4	112	0.00	30.089 
04:10	64.8	64.8	64.8	90	61.8	1	3	68	0.00	30.089 
04:15	64.8	64.8	64.8	90	61.8	2	4	112	0.00	30.088 
04:20	64.8	64.8	64.8	90	61.8	2	6	112	0.00	30.088 
04:25	65.0	65.0	65.0	90	62.0	1	5	90	0.00	30.088 
04:30	65.0	65.0	65.0	90	62.0	1	4	112	0.00	30.087 
04:35	65.0	65.0	65.0	90	62.0	2	6	112	0.00	30.087 
04:40	65.0	65.0	65.0	90	62.0	1	3	112	0.00	30.087 
04:45	65.0	65.0	65.0	90	62.0	1	4	112	0.00	30.089 
04:50	65.0	65.0	65.0	90	62.0	2	6	90	0.00	30.089 
04:55	65.0	65.0	65.0	89	61.7	2	6	90	0.00	30.089 
05:00	65.0	65.0	65.0	89	61.7	1	6	90	0.00	30.091 
05:05	64.8	64.8	64.8	89	61.5	2	5	90	0.00	30.091 
05:10	64.8	64.8	64.8	88	61.2	2	7	90	0.00	30.091 
05:15	64.7	64.7	64.7	88	61.1	1	5	90	0.00	30.095 
05:20	64.7	64.7	64.7	88	61.1	2	4	112	0.00	30.095 
05:25	64.7	64.7	64.7	88	61.1	2	6	112	0.00	30.095 
05:30	64.7	64.7	64.7	88	61.1	2	4	90	0.00	30.096 
05:35	64.8	64.8	64.8	88	61.2	1	3	90	0.00	30.096 
05:40	64.8	64.8	64.8	88	61.2	0	3	90	0.00	30.096 
05:45	64.8	64.8	64.8	89	61.5	1	4	90	0.00	30.097 
05:50	64.8	64.8	64.8	90	61.8	1	4	90	0.00	30.097 
05:55	64.7	64.7	64.7	90	61.7	1	3	90	0.00	30.097 
06:00	64.3	64.3	64.3	90	61.3	2	6	90	0.00	30.098 
06:05	64.3	64.3	64.3	89	61.0	1	2	135	0.00	30.098 
06:10	64.2	64.2	64.2	88	60.6	2	5	90	0.00	30.098 
06:15	64.0	64.0	64.0	87	60.0	2	4	90	0.00	30.100 
06:20	64.0	64.0	64.0	88	60.4	2	6	112	0.00	30.100 
06:25	64.0	64.0	64.0	89	60.7	1	5	90	0.00	30.100 
06:30	63.9	63.9	63.9	90	60.9	1	3	90	0.00	30.107 
06:35	63.5	63.5	63.5	91	60.8	1	9	90	0.00	30.107 
06:40	63.2	63.2	63.2	91	60.5	0	2	90	0.00	30.107 
06:45	63.1	63.1	63.1	92	60.7	1	5	90	0.00	30.108 
06:50	62.9	62.9	62.9	92	60.5	1	3	90	0.00	30.108 
06:55	62.7	62.7	62.7	92	60.3	1	3	90	0.00	30.108 
07:00	62.6	62.6	62.6	92	60.2	1	3	90	0.00	30.112 
07:05	62.4	62.4	62.4	92	60.0	1	3	112	0.00	30.112 
07:10	62.1	62.1	62.1	92	59.7	2	6	90	0.00	30.112 
07:15	62.1	62.1	62.1	93	60.0	1	5	90	0.00	30.116 
07:20	62.0	62.0	62.0	93	59.9	1	3	68	0.00	30.116 
07:25	62.0	62.0	62.0	93	59.9	0	2	68	0.00	30.116 
07:30	62.0	62.0	62.0	93	59.9	0	1	68	0.00	30.120 
07:35	61.8	61.8	61.8	93	59.8	0	2	68	0.00	30.120 
07:40	61.8	61.8	61.8	93	59.8	1	5	112	0.00	30.120 
07:45	61.6	61.6	61.6	93	59.6	1	4	112	0.00	30.118 
07:50	61.6	61.6	61.6	93	59.6	1	8	112	0.00	30.118 
07:55	61.5	61.5	61.5	93	59.5	1	4	45	0.00	30.118 
08:00	61.3	61.3	61.3	93	59.3	2	5	112	0.00	30.122 
08:05	61.3	61.3	61.3	93	59.3	2	6	112	0.00	30.122 
08:10	61.3	61.3	61.3	93	59.3	1	3	112	0.00	30.122 
08:15	61.5	61.5	61.5	93	59.5	0	3	112	0.00	30.132 
08:20	61.3	61.3	61.3	93	59.3	1	4	90	0.00	30.132 
08:25	61.3	61.3	61.3	92	59.0	1	3	68	0.00	30.132 
08:30	61.2	61.2	61.2	92	58.9	1	5	68	0.00	30.132 
08:35	61.0	61.0	61.0	92	58.7	1	4	90	0.00	30.132 
08:40	61.0	61.0	61.0	91	58.4	1	5	90	0.00	30.132 
08:45	60.9	60.9	60.9	90	57.9	2	6	90	0.00	30.134 
08:50	61.0	61.0	61.0	89	57.7	1	4	112	0.00	30.134 
08:55	61.2	61.2	61.2	89	57.9	2	7	112	0.00	30.134 
09:00	61.2	61.2	61.2	88	57.6	1	4	112	0.00	30.139 
09:05	61.2	61.2	61.2	88	57.6	0	3	112	0.00	30.139 
09:10	61.0	61.0	61.0	87	57.1	0	2	112	0.00	30.139 
09:15	61.0	61.0	61.0	86	56.8	1	6	112	0.00	30.139 
09:20	61.0	61.0	61.0	85	56.5	0	2	112	0.00	30.139 
09:25	61.2	61.2	61.2	85	56.6	1	4	112	0.00	30.139 
09:30	61.2	61.2	61.2	85	56.6	0	3	112	0.00	30.142 
09:35	61.2	61.2	61.2	85	56.6	1	3	68	0.00	30.142 
09:40	61.2	61.2	61.2	85	56.6	1	6	90	0.00	30.142 
09:45	61.2	61.2	61.2	85	56.6	2	7	90	0.00	30.138 
09:50	61.2	61.2	61.2	85	56.6	1	5	90	0.00	30.138 
09:55	61.3	61.3	61.3	85	56.7	2	7	112	0.00	30.138 
10:00	61.3	61.3	61.3	84	56.4	2	5	90	0.00	30.140 
10:05	61.6	61.6	61.6	84	56.7	0	4	90	0.00	30.140 
10:10	61.5	61.5	61.5	83	56.3	1	4	135	0.00	30.140 
10:15	61.2	61.2	61.2	81	55.3	1	6	112	0.00	30.153 
10:20	60.9	60.9	60.9	83	55.7	0	2	112	0.00	30.153 
10:25	60.7	60.7	60.7	83	55.5	0	2	112	0.00	30.153 
10:30	60.5	60.5	60.5	83	55.3	0	3	112	0.00	30.166 
10:35	60.4	60.4	60.4	84	55.5	1	4	112	0.00	30.166 
10:40	60.4	60.4	60.4	84	55.5	1	3	112	0.00	30.166 
10:45	60.5	60.5	60.5	85	56.0	0	2	112	0.00	30.156 
10:50	60.7	60.7	60.7	83	55.5	1	4	112	0.00	30.156 
10:55	60.7	60.7	60.7	82	55.2	2	5	112	0.00	30.156 
11:00	60.9	60.9	60.9	82	55.4	1	4	112	0.00	30.157 
11:05	60.9	60.9	60.9	83	55.7	0	3	135	0.00	30.157 
11:10	61.0	61.0	61.0	83	55.8	1	3	135	0.00	30.157 
11:15	61.0	61.0	61.0	83	55.8	1	3	90	0.00	30.158 
11:20	61.2	61.2	61.2	83	56.0	2	7	135	0.00	30.158 
11:25	61.2	61.2	61.2	83	56.0	3	5	90	0.00	30.158 
11:30	61.5	61.5	61.5	84	56.6	1	5	90	0.00	30.152 
11:35	61.8	61.8	61.8	82	56.2	2	5	90	0.00	30.152 
11:40	61.8	61.8	61.8	82	56.2	1	4	112	0.00	30.152 
11:45	62.0	62.0	62.0	82	56.4	2	6	135	0.00	30.153 
11:50	62.0	62.0	62.0	81	56.1	1	4	90	0.00	30.153 
11:55	62.0	62.0	62.0	81	56.1	1	6	135	0.00	30.153 
12:00	62.0	62.0	62.0	81	56.1	2	6	90	0.00	30.147 
12:05	62.1	62.1	62.1	81	56.2	2	5	90	0.00	30.147 
12:10	62.6	62.6	62.6	82	57.0	1	5	90	0.00	30.147 
12:15	62.9	62.9	62.9	81	57.0	2	6	112	0.00	30.145 
12:20	63.1	63.1	63.1	81	57.2	2	11	112	0.00	30.145 
12:25	63.2	63.2	63.2	80	56.9	2	5	90	0.00	30.145 
12:30	63.1	63.1	63.1	81	57.2	3	6	90	0.00	30.141 
12:35	63.1	63.1	63.1	81	57.2	2	6	90	0.00	30.141 
12:40	63.2	63.2	63.2	81	57.3	1	6	135	0.00	30.141 
12:45	63.2	63.2	63.2	81	57.3	1	6	90	0.00	30.140 
12:50	63.4	63.4	63.4	81	57.5	1	5	112	0.00	30.140 
12:55	63.4	63.4	63.4	78	56.4	2	4	112	0.00	30.140 
13:00	63.5	63.5	63.5	79	56.9	1	3	112	0.00	30.139 
13:05	63.7	63.7	63.7	78	56.7	1	4	112	0.00	30.139 
13:10	64.0	64.0	64.0	78	57.0	1	4	90	0.00	30.139 
13:15	64.0	64.0	64.0	77	56.6	2	5	112	0.00	30.129 
13:20	64.3	64.3	64.3	76	56.6	2	6	112	0.00	30.129 
13:25	64.5	64.5	64.5	76	56.8	2	5	90	0.00	30.129 
13:30	64.8	64.8	64.8	75	56.7	1	3	90	0.00	30.122 
13:35	65.0	65.0	65.0	76	57.2	2	5	112	0.00	30.122 
13:40	65.0	65.0	65.0	76	57.2	2	10	90	0.00	30.122 
13:45	65.5	65.5	65.5	78	58.5	0	2	90	0.00	30.122 
13:50	65.6	65.6	65.6	74	57.1	3	10	90	0.00	30.122 
13:55	66.1	66.1	66.1	76	58.3	3	6	112	0.00	30.122 
14:00	66.4	66.4	66.4	74	57.9	1	4	112	0.00	30.119 
14:05	66.9	66.9	66.9	75	58.7	1	3	90	0.00	30.119 
14:10	67.1	67.1	67.1	75	58.9	2	5	112	0.00	30.119 
14:15	67.3	67.3	67.3	72	58.0	3	6	90	0.00	30.111 
14:20	67.3	67.3	67.3	73	58.3	2	7	90	0.00	30.111 
14:25	67.3	67.3	67.3	73	58.3	2	5	90	0.00	30.111 
14:30	67.3	67.3	67.3	74	58.7	1	4	68	0.00	30.105 
14:35	67.6	67.6	67.6	75	59.4	1	3	68	0.00	30.105 
14:40	67.6	67.6	67.6	73	58.6	1	4	68	0.00	30.105 
14:45	67.6	67.6	67.6	73	58.6	2	5	90	0.00	30.104 
14:50	67.6	67.6	67.6	74	59.0	1	4	68	0.00	30.104 
14:55	67.9	67.9	67.9	73	58.9	2	6	68	0.00	30.104 
15:00	68.3	68.3	68.3	75	60.1	1	4	112	0.00	30.096 
15:05	68.3	68.3	68.3	72	58.9	1	4	112	0.00	30.096 
15:10	68.4	68.4	68.4	72	59.0	2	4	90	0.00	30.096 
15:15	68.8	68.8	68.8	71	59.0	2	5	90	0.00	30.090 
15:20	69.1	69.1	69.1	73	60.1	2	4	112	0.00	30.090 
15:25	69.6	69.6	69.6	71	59.8	2	6	90	0.00	30.090 
15:30	70.1	70.1	70.1	70	59.8	2	4	90	0.00	30.088 
15:35	70.3	70.3	70.3	70	60.0	2	5	90	0.00	30.088 
15:40	70.8	70.8	70.8	69	60.1	2	5	90	0.00	30.088 
15:45	70.9	70.9	70.9	67	59.4	3	8	90	0.00	30.081 
15:50	70.9	70.9	70.9	69	60.2	1	5	90	0.00	30.081 
15:55	71.5	71.5	71.5	68	60.4	1	4	90	0.00	30.081 
16:00	71.5	71.5	71.5	69	60.8	3	6	90	0.00	30.080 
16:05	71.5	71.5	71.5	68	60.4	2	6	90	0.00	30.080 
16:10	71.5	71.5	71.5	69	60.8	2	4	90	0.00	30.080 
16:15	71.3	71.3	71.3	68	60.2	2	6	90	0.00	30.083 
16:20	71.3	71.3	71.3	70	61.0	2	4	90	0.00	30.083 
16:25	71.3	71.3	71.3	68	60.2	3	7	112	0.00	30.083 
16:30	71.3	71.3	71.3	70	61.0	2	5	90	0.00	30.076 
16:35	71.6	71.6	71.6	70	61.3	1	4	112	0.00	30.076 
16:40	71.8	71.8	71.8	69	61.1	2	5	112	0.00	30.076 
16:45	71.8	71.8	71.8	68	60.7	2	7	90	0.00	30.075 
16:50	71.8	71.8	71.8	71	61.9	2	6	90	0.00	30.075 
16:55	72.0	72.0	72.0	70	61.7	2	4	90	0.00	30.075 
17:00	72.0	72.0	72.0	72	62.5	2	6	90	0.00	30.077 
17:05	72.1	72.1	72.1	72	62.6	1	4	90	0.00	30.077 
17:10	72.5	72.5	72.5	71	62.5	2	6	158	0.00	30.077 
17:15	72.5	72.5	72.5	72	62.9	1	7	112	0.00	30.071 
17:20	72.3	72.3	72.3	71	62.4	2	4	112	0.00	30.071 
17:25	72.3	72.3	72.3	72	62.8	2	6	90	0.00	30.071 
17:30	72.1	72.1	72.1	73	63.0	2	5	112	0.00	30.068 
17:35	72.0	72.0	72.0	73	62.9	2	6	90	0.00	30.068 
17:40	71.6	71.6	71.6	75	63.2	1	3	90	0.00	30.068 
17:45	71.5	71.5	71.5	74	62.8	2	6	90	0.00	30.069 
17:50	71.3	71.3	71.3	73	62.2	2	10	112	0.00	30.069 
17:55	71.1	71.1	71.1	75	62.8	1	7	112	0.00	30.069 
18:00	70.9	70.9	70.9	74	62.2	3	8	112	0.00	30.070 
18:05	70.9	70.9	70.9	75	62.6	1	6	90	0.00	30.070 
18:10	70.6	70.6	70.6	74	61.9	2	5	90	0.00	30.070 
18:15	70.4	70.4	70.4	76	62.5	2	5	112	0.00	30.073 
18:20	70.4	70.4	70.4	77	62.8	1	7	112	0.00	30.073 
18:25	70.3	70.3	70.3	76	62.4	2	5	112	0.00	30.073 
18:30	70.3	70.3	70.3	77	62.7	1	4	112	0.00	30.074 
18:35	70.1	70.1	70.1	77	62.5	3	6	90	0.00	30.074 
18:40	69.9	69.9	69.9	77	62.3	2	7	112	0.00	30.074 
18:45	69.8	69.8	69.8	77	62.3	2	5	90	0.00	30.071 
18:50	69.6	69.6	69.6	77	62.1	1	6	135	0.00	30.071 
18:55	69.6	69.6	69.6	77	62.1	2	7	90	0.00	30.071 
19:00	69.4	69.4	69.4	77	61.9	3	10	112	0.00	30.072 
19:05	69.4	69.4	69.4	77	61.9	1	3	90	0.00	30.072 
19:10	69.4	69.4	69.4	76	61.5	2	7	90	0.00	30.072 
19:15	69.6	69.6	69.6	78	62.4	1	5	112	0.00	30.073 
19:20	69.9	69.9	69.9	78	62.7	1	4	112	0.00	30.073 
19:25	69.9	69.9	69.9	77	62.3	2	5	90	0.00	30.073 
19:30	69.6	69.6	69.6	78	62.4	2	5	112	0.00	30.073 
19:35	69.3	69.3	69.3	78	62.1	1	4	112	0.00	30.073 
19:40	68.9	68.9	68.9	79	62.1	1	5	112	0.00	30.073 
19:45	68.6	68.6	68.6	80	62.2	1	3	112	0.00	30.073 
19:50	68.3	68.3	68.3	81	62.2	1	5	112	0.00	30.073 
19:55	67.9	67.9	67.9	82	62.2	1	4	90	0.00	30.073 
20:00	67.6	67.6	67.6	82	61.9	1	4	90	0.00	30.076 
20:05	67.3	67.3	67.3	83	62.0	2	6	112	0.00	30.076 
20:10	66.9	66.9	66.9	83	61.6	1	4	90	0.00	30.076 
20:15	66.8	66.8	66.8	84	61.8	1	5	90	0.00	30.081 
20:20	66.6	66.6	66.6	84	61.6	0	3	112	0.00	30.081 
20:25	66.3	66.3	66.3	85	61.6	0	1	112	0.00	30.081 
20:30	66.1	66.1	66.1	85	61.5	0	2	112	0.00	30.078 
20:35	66.0	66.0	66.0	85	61.4	1	3	112	0.00	30.078 
20:40	65.6	65.6	65.6	86	61.3	1	2	112	0.00	30.078 
20:45	65.6	65.6	65.6	86	61.3	0	2	112	0.00	30.083 
20:50	65.3	65.3	65.3	86	61.0	1	3	112	0.00	30.083 
20:55	65.2	65.2	65.2	86	60.9	1	3	112	0.00	30.083 
21:00	65.0	65.0	65.0	86	60.7	1	4	68	0.00	30.088 
21:05	64.8	64.8	64.8	86	60.5	0	3	68	0.00	30.088 
21:10	64.7	64.7	64.7	86	60.4	0	2	68	0.00	30.088 
21:15	64.5	64.5	64.5	86	60.2	0	2	68	0.00	30.092 
21:20	64.3	64.3	64.3	86	60.0	2	4	112	0.00	30.092 
21:25	64.2	64.2	64.2	85	59.6	0	1	112	0.00	30.092 
21:30	64.0	64.0	64.0	85	59.4	0	4	158	0.00	30.095 
21:35	64.0	64.0	64.0	85	59.4	0	3	158	0.00	30.095 
21:40	63.9	63.9	63.9	84	59.0	1	4	112	0.00	30.095 
21:45	63.9	63.9	63.9	84	59.0	1	6	90	0.00	30.099 
21:50	63.9	63.9	63.9	84	59.0	0	3	90	0.00	30.099 
21:55	63.9	63.9	63.9	84	59.0	1	3	90	0.00	30.099 
22:00	63.7	63.7	63.7	84	58.8	1	5	90	0.00	30.096 
22:05	63.7	63.7	63.7	84	58.8	1	3	90	0.00	30.096 
22:10	63.7	63.7	63.7	84	58.8	1	3	90	0.00	30.096 
22:15	63.5	63.5	63.5	84	58.6	0	3	90	0.00	30.096 
22:20	63.4	63.4	63.4	85	58.8	1	3	90	0.00	30.096 
22:25	63.4	63.4	63.4	85	58.8	1	3	90	0.00	30.096 
22:30	63.2	63.2	63.2	85	58.6	1	7	90	0.00	30.095 
22:35	63.2	63.2	63.2	85	58.6	0	3	112	0.00	30.095 
22:40	63.1	63.1	63.1	85	58.5	0	2	112	0.00	30.095 
22:45	63.1	63.1	63.1	85	58.5	0	3	112	0.00	30.094 
22:50	63.1	63.1	63.1	85	58.5	0	2	112	0.00	30.094 
22:55	62.9	62.9	62.9	86	58.6	0	3	112	0.00	30.094 
23:00	62.9	62.9	62.9	86	58.6	0	3	135	0.00	30.094 
23:05	62.9	62.9	62.9	86	58.6	1	6	90	0.00	30.094 
23:10	62.9	62.9	62.9	85	58.3	1	3	90	0.00	30.094 
23:15	62.9	62.9	62.9	85	58.3	1	4	90	0.00	30.092 
23:20	62.9	62.9	62.9	85	58.3	1	4	68	0.00	30.092 
23:25	62.7	62.7	62.7	85	58.1	1	3	112	0.00	30.092 
23:30	62.7	62.7	62.7	85	58.1	1	4	112	0.00	30.088 
23:35	62.6	62.6	62.6	86	58.3	1	3	112	0.00	30.088 
23:40	62.6	62.6	62.6	86	58.3	0	2	112	0.00	30.088 
23:45	62.4	62.4	62.4	86	58.2	1	3	112	0.00	30.086 
23:50	62.4	62.4	62.4	86	58.2	1	3	112	0.00	30.086 
23:55	62.3	62.3	62.3	87	58.4	1	4	112	0.00	30.086 

CoCoRaHS
IN-AL-39
A2 Web Hosting
Creative Commons License
GoDaddy
search engine by freefind advanced

loaded 2018-11-13 22:03:56 • last modified 2010-11-18 10:43:29
Privacy PolicyDisclaimer
• wx.awcolley.com is powered by PmWiki v.2002016 •
• all content (unless otherwise noted) © 2018 A W Colley